Time;durP1;ratioP1;P1;durP2;ratioP2;P2;SDS_P1;SDS_P2;PMS_P1;PMS_P2;Temp;Humidity;BMP_temperature;BMP_pressure;BME280_temperature;BME280_humidity;BME280_pressure;Samples;Min_cycle;Max_cycle;Signal;HPM_P1;HPM_P2
2023/09/04 00:00:21;;;;;;;6.73;6.10;;;18.40;99.90;;;;;;5022482;28;20775;-56
2023/09/04 00:02:49;;;;;;;7.17;6.67;;;18.40;99.90;;;;;;5024795;28;20268;-56
2023/09/04 00:05:18;;;;;;;6.40;5.90;;;18.40;99.90;;;;;;5028072;28;20199;-56
2023/09/04 00:07:46;;;;;;;7.03;6.53;;;18.20;99.90;;;;;;5025728;28;20202;-55
2023/09/04 00:10:13;;;;;;;6.20;5.73;;;18.20;99.90;;;;;;5026424;28;20275;-56
2023/09/04 00:12:40;;;;;;;6.63;6.07;;;18.20;99.90;;;;;;5023310;28;20604;-56
2023/09/04 00:15:08;;;;;;;5.43;5.03;;;18.10;99.90;;;;;;5023812;28;20203;-56
2023/09/04 00:17:35;;;;;;;5.67;5.23;;;18.00;99.90;;;;;;5024418;28;20616;-56
2023/09/04 00:20:02;;;;;;;5.53;5.23;;;17.90;99.90;;;;;;5028436;28;20202;-56
2023/09/04 00:22:30;;;;;;;5.83;5.30;;;17.90;99.90;;;;;;5024063;28;20285;-56
2023/09/04 00:24:58;;;;;;;5.03;4.70;;;17.80;99.90;;;;;;5022234;28;20202;-56
2023/09/04 00:27:26;;;;;;;5.77;5.47;;;17.80;99.90;;;;;;5027096;28;20253;-56
2023/09/04 00:29:53;;;;;;;7.20;6.53;;;17.70;99.90;;;;;;5020341;28;20633;-56
2023/09/04 00:32:20;;;;;;;6.23;5.73;;;17.70;99.90;;;;;;5022745;28;20206;-56
2023/09/04 00:34:47;;;;;;;8.07;7.37;;;17.70;99.90;;;;;;5022415;28;20214;-56
2023/09/04 00:37:14;;;;;;;7.37;6.77;;;17.60;99.90;;;;;;5027891;28;20205;-56
2023/09/04 00:39:41;;;;;;;8.77;7.00;;;17.60;99.90;;;;;;5024635;28;20584;-56
2023/09/04 00:42:10;;;;;;;6.20;5.80;;;17.50;99.90;;;;;;5025905;28;20712;-56
2023/09/04 00:44:37;;;;;;;6.27;5.87;;;17.50;99.90;;;;;;5025292;28;20280;-55
2023/09/04 00:47:05;;;;;;;6.43;5.93;;;17.60;99.90;;;;;;5018113;28;20203;-56
2023/09/04 00:49:32;;;;;;;6.87;6.00;;;17.50;99.90;;;;;;5021897;28;20203;-56
2023/09/04 00:52:00;;;;;;;6.93;6.23;;;17.50;99.90;;;;;;5024821;28;20364;-56
2023/09/04 00:54:28;;;;;;;5.90;5.50;;;17.50;99.90;;;;;;5025422;28;20210;-56
2023/09/04 00:56:55;;;;;;;5.87;5.57;;;17.50;99.90;;;;;;5024810;28;20242;-56
2023/09/04 00:59:25;;;;;;;6.80;6.30;;;17.50;99.90;;;;;;5025918;28;23564;-56
2023/09/04 01:01:53;;;;;;;6.00;5.53;;;17.50;99.90;;;;;;5019472;28;20215;-56
2023/09/04 01:04:20;;;;;;;6.27;5.87;;;17.50;99.90;;;;;;5025394;28;20199;-56
2023/09/04 01:06:47;;;;;;;6.23;5.80;;;17.50;99.90;;;;;;5024514;28;20290;-56
2023/09/04 01:09:14;;;;;;;5.70;5.20;;;17.50;99.90;;;;;;5027504;28;20205;-56
2023/09/04 01:11:47;;;;;;;5.37;5.07;;;17.50;99.90;;;;;;5031146;28;20260;-56
2023/09/04 01:14:19;;;;;;;5.77;5.47;;;17.50;99.90;;;;;;5029073;28;20217;-56
2023/09/04 01:16:48;;;;;;;5.20;4.90;;;17.50;99.90;;;;;;5025406;28;20202;-56
2023/09/04 01:19:17;;;;;;;5.13;4.80;;;17.60;99.90;;;;;;5023659;28;20264;-56
2023/09/04 01:21:45;;;;;;;6.00;4.50;;;17.70;99.90;;;;;;5030373;28;20226;-56
2023/09/04 01:24:12;;;;;;;5.13;4.83;;;17.70;99.90;;;;;;5028362;28;20203;-56
2023/09/04 01:26:44;;;;;;;4.47;4.37;;;17.70;99.90;;;;;;5024402;28;20256;-56
2023/09/04 01:29:17;;;;;;;6.13;5.63;;;17.70;99.90;;;;;;5022733;28;20230;-56
2023/09/04 01:31:50;;;;;;;5.57;5.17;;;17.70;99.90;;;;;;5027897;28;20689;-56
2023/09/04 01:34:20;;;;;;;5.63;5.13;;;17.60;99.90;;;;;;5027901;28;20202;-56
2023/09/04 01:36:52;;;;;;;6.03;5.60;;;17.50;99.90;;;;;;5024594;28;20204;-56
2023/09/04 01:39:20;;;;;;;5.57;5.20;;;17.50;99.90;;;;;;5028195;28;20637;-56
2023/09/04 01:41:47;;;;;;;4.77;4.47;;;17.50;99.90;;;;;;5027358;28;20276;-56
2023/09/04 01:44:15;;;;;;;5.67;5.27;;;17.50;99.90;;;;;;5027693;28;20210;-56
2023/09/04 01:46:42;;;;;;;5.20;4.70;;;17.40;99.90;;;;;;5027407;28;20333;-56
2023/09/04 01:49:09;;;;;;;4.50;4.20;;;17.40;99.90;;;;;;5021463;28;20264;-56
2023/09/04 01:51:36;;;;;;;4.43;4.20;;;17.40;99.90;;;;;;5027160;28;20222;-56
2023/09/04 01:54:04;;;;;;;4.97;4.57;;;17.40;99.90;;;;;;5023587;28;20264;-56
2023/09/04 01:56:31;;;;;;;4.77;4.47;;;17.50;99.90;;;;;;5052417;23;20299;-57
2023/09/04 01:58:58;;;;;;;4.63;4.23;;;17.50;99.90;;;;;;5012584;28;20740;-57
2023/09/04 02:01:25;;;;;;;4.20;3.87;;;17.40;99.90;;;;;;5012899;28;20262;-57
2023/09/04 02:03:57;;;;;;;3.57;3.37;;;17.40;99.90;;;;;;5011928;28;20209;-57
2023/09/04 02:06:25;;;;;;;4.43;4.13;;;17.40;99.90;;;;;;5011927;28;20200;-57
2023/09/04 02:08:52;;;;;;;4.57;4.17;;;17.40;99.90;;;;;;4993280;28;20251;-57
2023/09/04 02:11:20;;;;;;;4.87;4.47;;;17.40;99.90;;;;;;4999117;28;20223;-57
2023/09/04 02:13:47;;;;;;;4.43;4.07;;;17.40;99.90;;;;;;4998459;28;20297;-58
2023/09/04 02:16:14;;;;;;;4.90;4.60;;;17.50;99.90;;;;;;5005328;28;20204;-58
2023/09/04 02:18:42;;;;;;;4.83;4.57;;;17.50;99.90;;;;;;4989271;28;20681;-58
2023/09/04 02:21:10;;;;;;;5.00;4.70;;;17.50;99.90;;;;;;4973180;28;20271;-57
2023/09/04 02:23:37;;;;;;;4.10;3.90;;;17.50;99.90;;;;;;4972007;28;20204;-57
2023/09/04 02:26:03;;;;;;;4.10;3.93;;;17.40;99.90;;;;;;4995135;28;20253;-58
2023/09/04 02:28:32;;;;;;;4.40;4.20;;;17.40;99.90;;;;;;4982180;28;20220;-58
2023/09/04 02:30:59;;;;;;;4.87;4.47;;;17.40;99.90;;;;;;4994754;28;20219;-58
2023/09/04 02:33:26;;;;;;;4.40;4.20;;;17.40;99.90;;;;;;4992866;28;20234;-58
2023/09/04 02:35:56;;;;;;;4.90;4.60;;;17.40;99.90;;;;;;4992314;28;20208;-57
2023/09/04 02:38:23;;;;;;;5.07;4.77;;;17.30;99.90;;;;;;4992217;28;20224;-58
2023/09/04 02:40:50;;;;;;;3.87;3.70;;;17.30;99.90;;;;;;4986651;28;20200;-58
2023/09/04 02:43:17;;;;;;;4.40;4.10;;;17.20;99.90;;;;;;4988120;28;20266;-57
2023/09/04 02:45:46;;;;;;;4.50;4.23;;;17.20;99.90;;;;;;4991993;28;20207;-58
2023/09/04 02:48:16;;;;;;;4.33;4.13;;;17.20;99.90;;;;;;4992065;28;20259;-58
2023/09/04 02:50:43;;;;;;;4.53;4.30;;;17.20;99.90;;;;;;4992091;28;20219;-58
2023/09/04 02:53:10;;;;;;;4.60;4.23;;;17.20;99.90;;;;;;4991375;28;20299;-57
2023/09/04 02:55:37;;;;;;;4.43;4.13;;;17.10;99.90;;;;;;4997240;28;20581;-58
2023/09/04 02:58:04;;;;;;;4.80;4.40;;;17.10;99.90;;;;;;4992047;28;20297;-57
2023/09/04 03:00:31;;;;;;;4.93;4.53;;;17.10;99.90;;;;;;4993291;28;20204;-58
2023/09/04 03:02:59;;;;;;;4.63;4.40;;;17.00;99.90;;;;;;4991162;28;20216;-58
2023/09/04 03:05:27;;;;;;;4.97;4.67;;;17.00;99.90;;;;;;4991441;28;20208;-58
2023/09/04 03:07:54;;;;;;;4.80;4.40;;;17.00;99.90;;;;;;4992155;28;20259;-58
2023/09/04 03:10:21;;;;;;;4.40;4.03;;;17.00;99.90;;;;;;5003065;28;20697;-58
2023/09/04 03:12:48;;;;;;;4.57;4.17;;;17.00;99.90;;;;;;5005031;28;20227;-57
2023/09/04 03:15:14;;;;;;;5.20;4.70;;;17.00;99.90;;;;;;5002935;28;20303;-58
2023/09/04 03:17:42;;;;;;;4.40;4.20;;;17.00;99.90;;;;;;5010931;28;20281;-58
2023/09/04 03:20:12;;;;;;;5.80;4.30;;;17.00;99.90;;;;;;5003817;28;20204;-57
2023/09/04 03:22:39;;;;;;;5.53;4.40;;;17.00;99.90;;;;;;4993285;28;20203;-57
2023/09/04 03:25:06;;;;;;;4.57;4.37;;;16.90;99.90;;;;;;4991081;28;20200;-58
2023/09/04 03:27:33;;;;;;;4.57;4.37;;;16.90;99.90;;;;;;4991144;28;20800;-57
2023/09/04 03:30:00;;;;;;;4.37;4.07;;;16.90;99.90;;;;;;4992498;28;20625;-58
2023/09/04 03:32:27;;;;;;;6.27;5.87;;;16.90;99.90;;;;;;4999058;28;20284;-57
2023/09/04 03:34:54;;;;;;;5.17;4.67;;;16.90;99.90;;;;;;5000970;28;20278;-58
2023/09/04 03:37:22;;;;;;;4.20;3.90;;;16.90;99.90;;;;;;5005502;28;20368;-58
2023/09/04 03:39:49;;;;;;;4.87;4.40;;;16.90;99.90;;;;;;4978402;28;20622;-57
2023/09/04 03:42:16;;;;;;;4.37;4.10;;;16.90;99.90;;;;;;4971146;28;20631;-57
2023/09/04 03:44:43;;;;;;;5.43;4.97;;;16.90;99.90;;;;;;4975426;28;20583;-62
2023/09/04 03:47:11;;;;;;;4.83;4.63;;;16.90;99.90;;;;;;4998070;28;20723;-59
2023/09/04 03:49:38;;;;;;;4.47;4.20;;;16.80;99.90;;;;;;4994987;28;20208;-59
2023/09/04 03:52:05;;;;;;;5.45;4.95;;;16.90;99.90;;;;;;4994141;28;20960;-59
2023/09/04 03:54:34;;;;;;;4.83;4.53;;;16.80;99.90;;;;;;4984971;28;20257;-59
2023/09/04 03:57:02;;;;;;;4.63;4.43;;;16.70;99.90;;;;;;4989965;28;20231;-59
2023/09/04 03:59:29;;;;;;;5.00;4.60;;;16.70;99.90;;;;;;4983446;28;20622;-59
2023/09/04 04:01:56;;;;;;;4.53;4.33;;;16.70;99.90;;;;;;4994501;28;20195;-59
2023/09/04 04:04:23;;;;;;;4.23;3.93;;;16.70;99.90;;;;;;4990356;28;20207;-59
2023/09/04 04:06:49;;;;;;;4.97;4.17;;;16.70;99.90;;;;;;4989492;28;20647;-58
2023/09/04 04:09:17;;;;;;;3.97;3.87;;;16.70;99.90;;;;;;5001335;28;20207;-59
2023/09/04 04:11:46;;;;;;;4.23;3.93;;;16.70;99.90;;;;;;5002012;28;20249;-59
2023/09/04 04:14:13;;;;;;;4.87;4.47;;;16.70;99.90;;;;;;5001539;28;20203;-59
2023/09/04 04:16:40;;;;;;;6.17;4.57;;;16.60;99.90;;;;;;4980946;28;20227;-59
2023/09/04 04:19:07;;;;;;;4.40;4.20;;;16.60;99.90;;;;;;4974928;28;20700;-59
2023/09/04 04:21:34;;;;;;;5.73;5.23;;;16.60;99.90;;;;;;4979907;28;20725;-59
2023/09/04 04:24:03;;;;;;;4.63;4.27;;;16.70;99.90;;;;;;4989832;28;20218;-59
2023/09/04 04:26:30;;;;;;;4.40;4.10;;;16.70;99.90;;;;;;4990558;28;20250;-58
2023/09/04 04:28:58;;;;;;;4.70;4.40;;;16.80;99.90;;;;;;4990932;28;20295;-58
2023/09/04 04:31:25;;;;;;;4.40;4.20;;;16.80;99.90;;;;;;4990539;28;20240;-58
2023/09/04 04:33:52;;;;;;;4.80;4.50;;;16.80;99.90;;;;;;4992433;28;20251;-58
2023/09/04 04:36:19;;;;;;;5.70;3.90;;;16.80;99.90;;;;;;4991811;28;20204;-58
2023/09/04 04:38:46;;;;;;;4.00;3.73;;;16.80;99.90;;;;;;4992723;28;20207;-58
2023/09/04 04:41:13;;;;;;;3.90;3.33;;;16.70;99.90;;;;;;4994378;28;20207;-59
2023/09/04 04:43:40;;;;;;;4.37;4.17;;;16.60;99.90;;;;;;4993505;28;20250;-59
2023/09/04 04:46:12;;;;;;;3.23;3.13;;;16.60;99.90;;;;;;4994466;28;20203;-59
2023/09/04 04:48:39;;;;;;;3.90;3.70;;;16.50;99.90;;;;;;4984895;28;20274;-59
2023/09/04 04:51:07;;;;;;;4.40;4.20;;;16.50;99.90;;;;;;4987017;28;20278;-59
2023/09/04 04:53:34;;;;;;;3.33;3.23;;;16.40;99.90;;;;;;4991196;28;20204;-59
2023/09/04 04:56:01;;;;;;;3.30;3.07;;;16.40;99.90;;;;;;4994001;28;20210;-59
2023/09/04 04:58:28;;;;;;;3.33;3.13;;;16.40;99.90;;;;;;4994273;28;20235;-58
2023/09/04 05:00:56;;;;;;;3.20;3.00;;;16.40;99.90;;;;;;4994410;28;20204;-58
2023/09/04 05:03:24;;;;;;;3.67;3.00;;;16.40;99.90;;;;;;4993244;28;20674;-58
2023/09/04 05:05:51;;;;;;;3.03;2.80;;;16.40;99.90;;;;;;4998072;28;20207;-58
2023/09/04 05:08:18;;;;;;;2.60;2.50;;;16.50;99.90;;;;;;4997736;28;20278;-59
2023/09/04 05:10:45;;;;;;;3.43;2.73;;;16.50;99.90;;;;;;4990935;28;20204;-58
2023/09/04 05:13:12;;;;;;;3.23;2.93;;;16.60;99.90;;;;;;4999232;28;20319;-59
2023/09/04 05:15:39;;;;;;;2.97;2.80;;;16.60;99.90;;;;;;5001347;28;20207;-59
2023/09/04 05:18:06;;;;;;;2.83;2.63;;;16.70;99.90;;;;;;4974402;28;20224;-59
2023/09/04 05:20:37;;;;;;;4.80;2.80;;;16.70;99.90;;;;;;4993990;28;20206;-59
2023/09/04 05:23:04;;;;;;;2.70;2.50;;;16.70;99.90;;;;;;5001497;28;20273;-58
2023/09/04 05:25:31;;;;;;;2.93;2.83;;;16.70;99.90;;;;;;4994696;28;20273;-58
2023/09/04 05:27:58;;;;;;;2.90;2.70;;;16.80;99.90;;;;;;5001663;28;20227;-59
2023/09/04 05:30:25;;;;;;;2.73;2.63;;;16.90;99.90;;;;;;4999184;28;20621;-60
2023/09/04 05:32:54;;;;;;;3.17;2.97;;;16.90;99.90;;;;;;4992740;28;20556;-59
2023/09/04 05:35:21;;;;;;;3.27;2.23;;;16.90;99.90;;;;;;4997861;28;20211;-58
2023/09/04 05:37:49;;;;;;;2.70;2.53;;;17.00;99.90;;;;;;5000454;28;20219;-59
2023/09/04 05:40:17;;;;;;;3.20;3.00;;;17.10;99.90;;;;;;5004110;28;20266;-58
2023/09/04 05:42:44;;;;;;;3.57;2.77;;;17.30;99.90;;;;;;4992699;28;20200;-58
2023/09/04 05:45:11;;;;;;;3.17;2.70;;;17.80;99.90;;;;;;4988953;28;20249;-59
2023/09/04 05:47:38;;;;;;;2.50;2.40;;;18.50;99.90;;;;;;4997111;28;20219;-59
2023/09/04 05:50:06;;;;;;;2.17;2.03;;;19.20;99.90;;;;;;4990971;28;20207;-59
2023/09/04 05:52:33;;;;;;;2.23;2.13;;;19.90;99.90;;;;;;4982973;28;20542;-58
2023/09/04 05:55:01;;;;;;;2.10;2.00;;;20.70;99.90;;;;;;5010526;28;20206;-59
2023/09/04 05:57:28;;;;;;;2.80;2.60;;;21.50;99.90;;;;;;4983849;28;20228;-57
2023/09/04 05:59:55;;;;;;;2.53;2.43;;;22.20;99.90;;;;;;4992386;28;20326;-57
2023/09/04 06:02:22;;;;;;;2.10;2.00;;;22.90;99.90;;;;;;4984407;28;20671;-58
2023/09/04 06:04:49;;;;;;;2.07;2.07;;;23.60;99.90;;;;;;4973493;28;20289;-58
2023/09/04 06:07:16;;;;;;;2.17;1.93;;;24.30;99.90;;;;;;4981298;28;20215;-57
2023/09/04 06:09:44;;;;;;;1.80;1.70;;;25.20;99.90;;;;;;4988786;28;20250;-58
2023/09/04 06:12:13;;;;;;;3.70;2.03;;;25.50;99.90;;;;;;5004055;28;20323;-58
2023/09/04 06:14:40;;;;;;;2.03;2.00;;;25.90;99.90;;;;;;5002766;28;20203;-58
2023/09/04 06:17:10;;;;;;;1.73;1.57;;;26.20;99.90;;;;;;4991234;28;20220;-58
2023/09/04 06:19:37;;;;;;;1.53;1.43;;;26.20;99.90;;;;;;4976650;28;20205;-58
2023/09/04 06:22:04;;;;;;;1.67;1.60;;;26.60;99.90;;;;;;5010030;28;20927;-55
2023/09/04 06:24:31;;;;;;;2.22;2.13;;;26.90;99.90;;;;;;5011705;28;20317;-55
2023/09/04 06:26:58;;;;;;;2.33;2.22;;;27.50;99.90;;;;;;5011655;28;20304;-55
2023/09/04 06:29:26;;;;;;;1.42;1.42;;;27.80;99.90;;;;;;4995508;28;20196;-56
2023/09/04 06:31:53;;;;;;;1.63;1.63;;;27.90;99.90;;;;;;4991045;28;20244;-57
2023/09/04 06:34:20;;;;;;;1.55;1.55;;;28.40;99.90;;;;;;4986233;28;20199;-55
2023/09/04 06:36:47;;;;;;;2.08;1.98;;;28.00;99.90;;;;;;5001490;28;20693;-56
2023/09/04 06:39:14;;;;;;;3.83;1.17;;;28.00;99.90;;;;;;4992892;28;20191;-55
2023/09/04 06:41:42;;;;;;;2.05;1.95;;;28.40;99.90;;;;;;5011433;28;20226;-56
2023/09/04 06:44:09;;;;;;;7.05;2.28;;;28.60;99.90;;;;;;5009717;28;20210;-56
2023/09/04 06:46:37;;;;;;;1.83;1.73;;;28.70;99.90;;;;;;5002497;28;20224;-57
2023/09/04 06:49:04;;;;;;;2.03;1.80;;;29.30;99.90;;;;;;4976069;28;20262;-56
2023/09/04 06:51:31;;;;;;;2.67;2.45;;;29.50;99.90;;;;;;4986015;28;20227;-55
2023/09/04 06:53:58;;;;;;;1.27;1.17;;;30.00;99.90;;;;;;4989096;28;20224;-56
2023/09/04 06:56:25;;;;;;;2.97;1.90;;;30.30;99.90;;;;;;4987108;28;20718;-56
2023/09/04 06:58:53;;;;;;;1.65;1.65;;;30.10;99.90;;;;;;5000887;28;20649;-56
2023/09/04 07:01:20;;;;;;;1.73;1.63;;;30.00;99.90;;;;;;5010143;28;20223;-57
2023/09/04 07:03:49;;;;;;;2.22;1.90;;;29.70;99.90;;;;;;5010447;28;20206;-56
2023/09/04 07:06:16;;;;;;;3.00;1.92;;;29.80;99.90;;;;;;5004999;28;20235;-59
2023/09/04 07:08:43;;;;;;;2.22;2.13;;;29.40;99.90;;;;;;4988361;28;20651;-61
2023/09/04 07:11:10;;;;;;;2.35;2.25;;;29.50;99.90;;;;;;5007343;28;20609;-61
2023/09/04 07:13:37;;;;;;;2.08;1.95;;;29.30;99.90;;;;;;4996791;28;20323;-57
2023/09/04 07:16:04;;;;;;;2.22;1.92;;;29.40;99.90;;;;;;4981202;28;20207;-58
2023/09/04 07:18:32;;;;;;;2.42;2.22;;;29.10;99.90;;;;;;4985679;28;20748;-59
2023/09/04 07:21:00;;;;;;;2.25;2.15;;;28.50;99.90;;;;;;5001814;28;20269;-60
2023/09/04 07:23:27;;;;;;;2.13;1.85;;;29.10;99.90;;;;;;4995810;28;20201;-61
2023/09/04 07:25:55;;;;;;;1.75;1.67;;;29.10;99.90;;;;;;4995129;28;20210;-61
2023/09/04 07:28:22;;;;;;;1.92;1.83;;;29.50;99.90;;;;;;4987621;28;20239;-61
2023/09/04 07:30:50;;;;;;;1.63;1.63;;;29.60;99.90;;;;;;4978550;28;20579;-60
2023/09/04 07:33:20;;;;;;;2.33;2.00;;;30.30;99.90;;;;;;4979632;28;20220;-61
2023/09/04 07:35:55;;;;;;;1.98;1.60;;;31.00;99.90;;;;;;4980663;28;20200;-62
2023/09/04 07:38:23;;;;;;;2.63;1.80;;;31.20;99.90;;;;;;4985879;28;20322;-60
2023/09/04 07:41:00;;;;;;;2.90;2.55;;;31.10;99.90;;;;;;4980912;28;20343;-57
2023/09/04 07:43:27;;;;;;;2.63;2.42;;;31.60;99.90;;;;;;4992926;28;20287;-62
2023/09/04 07:45:54;;;;;;;1.83;1.83;;;31.40;99.90;;;;;;4979177;28;20287;-61
2023/09/04 07:48:23;;;;;;;2.67;2.58;;;31.30;99.90;;;;;;4978308;28;20223;-63
2023/09/04 07:50:52;;;;;;;2.10;2.00;;;31.20;99.90;;;;;;4981631;28;20653;-64
2023/09/04 07:53:19;;;;;;;2.90;2.70;;;31.30;99.90;;;;;;4978959;28;20356;-62
2023/09/04 07:55:48;;;;;;;4.00;2.65;;;31.80;99.90;;;;;;4984516;28;20212;-63
2023/09/04 07:58:18;;;;;;;1.98;1.90;;;32.20;99.90;;;;;;4981329;28;20438;-59
2023/09/04 08:00:47;;;;;;;2.03;2.00;;;32.30;99.90;;;;;;4978032;28;20204;-62
2023/09/04 08:03:14;;;;;;;3.00;2.70;;;32.20;99.90;;;;;;5002271;28;20594;-63
2023/09/04 08:05:41;;;;;;;1.92;1.83;;;32.40;99.90;;;;;;5009822;28;20211;-63
2023/09/04 08:08:10;;;;;;;2.22;2.13;;;32.30;99.90;;;;;;4994986;28;20640;-63
2023/09/04 08:10:40;;;;;;;3.00;2.67;;;33.00;99.90;;;;;;5008878;28;20215;-63
2023/09/04 08:13:10;;;;;;;2.75;2.05;;;32.80;99.90;;;;;;5005217;28;20208;-62
2023/09/04 08:15:38;;;;;;;2.63;2.42;;;32.70;99.90;;;;;;5069502;23;20234;-63
2023/09/04 08:18:06;;;;;;;2.70;2.60;;;32.90;99.90;;;;;;5047428;28;20699;-64
2023/09/04 08:20:33;;;;;;;2.90;2.70;;;33.20;99.90;;;;;;5047414;28;20263;-62
2023/09/04 08:23:00;;;;;;;2.75;2.65;;;31.40;99.90;;;;;;5048424;28;20273;-57
2023/09/04 08:25:26;;;;;;;2.50;2.38;;;30.80;99.90;;;;;;5048686;28;20222;-62
2023/09/04 08:27:53;;;;;;;3.40;2.45;;;31.70;99.90;;;;;;5046628;28;20279;-62
2023/09/04 08:30:22;;;;;;;2.30;2.20;;;32.40;99.90;;;;;;5050498;28;20202;-62
2023/09/04 08:32:50;;;;;;;2.42;2.33;;;32.40;99.90;;;;;;5048870;28;20225;-63
2023/09/04 08:35:17;;;;;;;2.45;2.35;;;32.70;99.90;;;;;;5050614;28;20225;-62
2023/09/04 08:37:45;;;;;;;3.08;2.88;;;32.80;99.90;;;;;;5049373;28;20672;-56
2023/09/04 08:40:13;;;;;;;2.88;2.78;;;33.00;99.90;;;;;;5048673;28;20227;-56
2023/09/04 08:42:41;;;;;;;3.00;1.92;;;32.60;99.90;;;;;;5049611;28;20289;-64
2023/09/04 08:45:09;;;;;;;2.42;2.33;;;32.30;99.90;;;;;;5049165;28;20217;-60
2023/09/04 08:47:40;;;;;;;2.00;1.85;;;32.20;99.90;;;;;;5050397;28;22265;-59
2023/09/04 08:50:08;;;;;;;2.55;2.45;;;32.70;99.90;;;;;;5049186;28;20288;-59
2023/09/04 08:52:37;;;;;;;2.60;2.58;;;32.80;99.90;;;;;;5053587;28;20209;-60
2023/09/04 08:55:04;;;;;;;2.42;2.22;;;32.90;99.90;;;;;;5047857;28;20233;-60
2023/09/04 08:57:33;;;;;;;2.25;2.15;;;33.10;99.90;;;;;;5046563;28;20203;-60
2023/09/04 09:00:00;;;;;;;1.90;1.90;;;33.40;99.90;;;;;;5046684;28;20259;-60
2023/09/04 09:02:28;;;;;;;2.33;2.22;;;33.30;99.90;;;;;;5045408;28;20212;-60
2023/09/04 09:04:57;;;;;;;2.50;2.50;;;33.60;98.90;;;;;;5044531;28;20311;-60
2023/09/04 09:07:27;;;;;;;3.45;2.67;;;33.10;99.20;;;;;;5047085;28;20268;-60
2023/09/04 09:09:56;;;;;;;2.80;2.70;;;32.90;99.90;;;;;;5039953;28;20664;-61
2023/09/04 09:12:23;;;;;;;2.55;2.45;;;33.00;99.60;;;;;;5044387;28;20255;-62
2023/09/04 09:14:50;;;;;;;2.50;2.30;;;32.70;98.50;;;;;;5052252;28;20283;-62
2023/09/04 09:17:18;;;;;;;8.68;2.72;;;32.30;99.90;;;;;;5045270;28;20578;-58
2023/09/04 09:19:45;;;;;;;5.95;2.70;;;32.40;99.90;;;;;;5052263;28;20242;-62
2023/09/04 09:22:15;;;;;;;2.58;2.45;;;32.90;99.70;;;;;;5043741;28;20197;-60
2023/09/04 09:24:53;;;;;;;2.35;2.35;;;32.90;99.90;;;;;;5050658;28;20250;-60
2023/09/04 09:27:21;;;;;;;3.03;2.83;;;32.60;99.60;;;;;;5047520;28;20247;-62
2023/09/04 09:29:49;;;;;;;3.63;3.30;;;32.70;99.90;;;;;;5053352;28;20205;-63
2023/09/04 09:32:17;;;;;;;2.00;1.90;;;32.40;99.90;;;;;;5053150;28;20668;-61
2023/09/04 09:34:49;;;;;;;2.85;2.60;;;32.90;99.90;;;;;;5052663;28;20236;-62
2023/09/04 09:37:17;;;;;;;2.72;2.47;;;33.10;99.90;;;;;;5055028;28;20205;-61
2023/09/04 09:39:44;;;;;;;3.10;2.20;;;33.00;99.90;;;;;;5051741;28;20209;-62
2023/09/04 09:42:11;;;;;;;2.45;2.17;;;33.40;99.90;;;;;;5053654;28;20201;-60
2023/09/04 09:44:39;;;;;;;2.58;2.47;;;33.00;99.90;;;;;;5052645;28;20201;-60
2023/09/04 09:47:08;;;;;;;2.97;2.72;;;33.00;99.90;;;;;;5049410;28;20198;-60
2023/09/04 09:49:36;;;;;;;2.72;2.50;;;33.00;98.50;;;;;;5053022;28;20193;-62
2023/09/04 09:52:07;;;;;;;2.85;2.53;;;33.20;98.40;;;;;;5047281;28;20655;-61
2023/09/04 09:54:37;;;;;;;2.67;2.50;;;33.10;99.10;;;;;;5057824;28;20213;-60
2023/09/04 09:57:07;;;;;;;2.97;2.88;;;32.90;98.20;;;;;;5053701;28;20201;-60
2023/09/04 09:59:35;;;;;;;2.53;2.42;;;31.90;99.90;;;;;;5053251;28;20610;-60
2023/09/04 10:02:03;;;;;;;2.95;2.85;;;32.60;99.60;;;;;;5048853;28;20256;-61
2023/09/04 10:04:32;;;;;;;2.60;2.50;;;32.80;99.90;;;;;;5052574;28;20284;-61
2023/09/04 10:07:01;;;;;;;2.30;2.20;;;32.60;99.60;;;;;;5053627;28;20800;-61
2023/09/04 10:09:29;;;;;;;2.97;2.47;;;33.00;98.60;;;;;;5045458;28;20251;-62
2023/09/04 10:12:07;;;;;;;2.25;2.15;;;32.80;98.50;;;;;;5052918;28;20210;-62
2023/09/04 10:14:40;;;;;;;2.67;2.53;;;33.00;99.30;;;;;;5049599;28;20217;-59
2023/09/04 10:17:11;;;;;;;2.53;2.40;;;32.50;99.50;;;;;;5052373;28;20197;-62
2023/09/04 10:19:42;;;;;;;3.47;3.28;;;32.40;99.90;;;;;;5047394;28;20213;-60
2023/09/04 10:22:21;;;;;;;2.63;2.53;;;32.40;99.90;;;;;;5054146;28;20193;-60
2023/09/04 10:24:56;;;;;;;2.83;2.70;;;32.50;99.90;;;;;;5050408;28;20270;-61
2023/09/04 10:27:27;;;;;;;3.30;3.03;;;32.50;99.90;;;;;;5052928;28;20202;-62
2023/09/04 10:30:02;;;;;;;1.90;1.80;;;32.00;99.90;;;;;;5050752;28;20194;-61
2023/09/04 10:32:31;;;;;;;2.30;2.20;;;31.90;99.90;;;;;;5048191;28;20200;-58
2023/09/04 10:34:58;;;;;;;2.40;2.20;;;32.10;99.90;;;;;;5052722;28;20275;-58
2023/09/04 10:37:28;;;;;;;5.38;2.42;;;32.10;99.90;;;;;;5055016;28;20194;-61
2023/09/04 10:39:55;;;;;;;2.22;2.22;;;31.80;99.70;;;;;;5053242;28;20283;-61
2023/09/04 10:42:27;;;;;;;3.63;2.03;;;31.80;99.90;;;;;;5049363;28;20198;-61
2023/09/04 10:44:56;;;;;;;2.20;2.10;;;31.90;99.90;;;;;;5051204;28;20641;-58
2023/09/04 10:47:23;;;;;;;1.90;1.80;;;31.70;99.90;;;;;;5051432;28;20221;-58
2023/09/04 10:49:51;;;;;;;2.50;2.38;;;31.70;99.90;;;;;;5049706;28;20205;-58
2023/09/04 10:52:18;;;;;;;2.40;2.30;;;31.60;99.90;;;;;;5051495;28;20202;-58
2023/09/04 10:54:46;;;;;;;1.90;1.80;;;31.50;99.90;;;;;;5055753;28;20297;-57
2023/09/04 10:57:15;;;;;;;2.55;2.45;;;30.90;99.90;;;;;;5051348;28;20255;-58
2023/09/04 11:00:02;;;;;;;2.28;2.20;;;30.50;99.90;;;;;;5049621;28;20582;-58
2023/09/04 11:02:31;;;;;;;1.80;1.80;;;30.40;99.90;;;;;;5051824;28;20284;-58
2023/09/04 11:04:59;;;;;;;3.63;1.95;;;29.80;99.90;;;;;;5047350;28;20263;-57
2023/09/04 11:07:28;;;;;;;2.00;1.70;;;29.30;99.90;;;;;;5049776;28;20252;-57
2023/09/04 11:10:03;;;;;;;2.08;2.08;;;29.30;99.90;;;;;;5048359;28;20656;-57
2023/09/04 11:12:33;;;;;;;1.80;1.70;;;29.40;99.90;;;;;;5049935;28;20288;-57
2023/09/04 11:15:02;;;;;;;1.65;1.65;;;29.00;99.90;;;;;;5050403;28;20735;-57
2023/09/04 11:17:31;;;;;;;2.17;2.08;;;28.90;99.90;;;;;;5050837;28;20545;-57
2023/09/04 11:19:59;;;;;;;1.90;1.73;;;28.70;99.90;;;;;;5052865;28;21271;-57
2023/09/04 11:22:26;;;;;;;1.98;1.88;;;28.50;99.90;;;;;;5050125;28;20210;-58
2023/09/04 11:24:54;;;;;;;2.75;2.30;;;28.50;99.90;;;;;;5051293;28;20225;-57
2023/09/04 11:27:21;;;;;;;2.72;2.58;;;28.20;99.90;;;;;;5048526;28;20217;-61
2023/09/04 11:29:48;;;;;;;2.30;2.20;;;28.00;99.90;;;;;;5048606;28;20208;-63
2023/09/04 11:32:17;;;;;;;2.45;2.35;;;28.20;99.90;;;;;;5045818;28;20205;-63
2023/09/04 11:34:45;;;;;;;2.17;2.08;;;28.40;99.90;;;;;;5045818;28;20255;-64
2023/09/04 11:37:12;;;;;;;1.85;1.75;;;28.40;99.90;;;;;;5044539;28;20204;-60
2023/09/04 11:39:53;;;;;;;2.05;1.63;;;28.50;99.90;;;;;;5050063;28;20259;-60
2023/09/04 11:42:21;;;;;;;2.03;2.03;;;28.10;99.90;;;;;;5048023;28;20227;-62
2023/09/04 11:44:49;;;;;;;1.73;1.73;;;28.10;99.90;;;;;;5044839;28;20202;-57
2023/09/04 11:47:18;;;;;;;2.00;1.85;;;27.90;99.90;;;;;;5049285;28;20193;-58
2023/09/04 11:49:46;;;;;;;2.20;2.20;;;27.80;99.90;;;;;;5046364;28;20746;-57
2023/09/04 11:52:14;;;;;;;1.40;1.40;;;27.90;99.90;;;;;;5052712;28;20675;-57
2023/09/04 11:54:41;;;;;;;2.10;2.05;;;27.70;99.90;;;;;;5039452;28;20240;-57
2023/09/04 11:57:10;;;;;;;2.70;2.20;;;27.70;99.90;;;;;;5049369;28;20194;-58
2023/09/04 11:59:38;;;;;;;2.28;2.13;;;27.80;99.90;;;;;;5048269;28;20204;-58
2023/09/04 12:02:07;;;;;;;1.88;1.75;;;28.00;99.90;;;;;;5048716;28;20663;-57
2023/09/04 12:04:36;;;;;;;1.90;1.88;;;27.90;99.90;;;;;;5046301;28;20226;-57
2023/09/04 12:07:04;;;;;;;2.15;2.05;;;27.80;99.90;;;;;;5048094;28;20256;-58
2023/09/04 12:09:33;;;;;;;1.58;1.58;;;27.80;99.90;;;;;;5047345;28;20250;-58
2023/09/04 12:12:01;;;;;;;1.95;1.80;;;27.80;99.90;;;;;;5051697;28;20240;-58
2023/09/04 12:14:29;;;;;;;1.50;1.50;;;27.90;99.90;;;;;;5049214;28;20229;-58
2023/09/04 12:16:56;;;;;;;1.77;1.77;;;27.90;99.90;;;;;;5049688;28;20229;-55
2023/09/04 12:19:23;;;;;;;1.77;1.67;;;28.00;99.90;;;;;;5047338;28;20208;-57
2023/09/04 12:21:52;;;;;;;1.50;1.40;;;28.10;99.90;;;;;;5046067;28;20215;-57
2023/09/04 12:24:21;;;;;;;2.17;1.70;;;28.00;99.90;;;;;;5050846;28;20652;-56
2023/09/04 12:26:50;;;;;;;1.50;1.40;;;27.80;99.90;;;;;;5050316;28;20602;-57
2023/09/04 12:29:19;;;;;;;1.40;1.40;;;27.90;99.90;;;;;;5049080;28;20204;-57
2023/09/04 12:31:48;;;;;;;1.90;1.60;;;27.80;99.90;;;;;;5048878;28;20206;-57
2023/09/04 12:34:16;;;;;;;1.20;1.20;;;27.80;99.90;;;;;;5039794;28;20803;-57
2023/09/04 12:36:43;;;;;;;2.03;1.65;;;27.80;99.90;;;;;;5049406;28;20229;-57
2023/09/04 12:39:11;;;;;;;1.75;1.52;;;27.60;99.90;;;;;;5044890;28;20208;-57
2023/09/04 12:41:38;;;;;;;1.58;1.48;;;27.60;99.90;;;;;;5055365;28;20626;-57
2023/09/04 12:44:06;;;;;;;0.98;0.98;;;27.80;99.90;;;;;;5049762;28;20609;-57
2023/09/04 12:46:33;;;;;;;3.00;1.42;;;27.80;99.90;;;;;;5044418;28;20812;-57
2023/09/04 12:49:00;;;;;;;1.83;1.65;;;27.80;99.90;;;;;;5048668;28;20198;-57
2023/09/04 12:51:27;;;;;;;1.73;1.63;;;27.60;99.90;;;;;;5051079;28;20198;-57